createdAt,value
2018-06-04T00:00:01.920Z,100508.52
2018-06-04T00:02:30.730Z,100517.69
2018-06-04T00:04:59.518Z,100516.44
2018-06-04T00:07:28.343Z,100510.48
2018-06-04T00:09:58.006Z,100501.05
2018-06-04T00:12:26.804Z,100503.19
2018-06-04T00:14:55.557Z,100490.77
2018-06-04T00:17:24.375Z,100483.30
2018-06-04T00:19:53.142Z,100486.50
2018-06-04T00:22:21.909Z,100491.83
2018-06-04T00:24:50.735Z,100480.60
2018-06-04T00:27:19.546Z,100483.61
2018-06-04T00:29:48.348Z,100482.67
2018-06-04T00:32:17.208Z,100484.95
2018-06-04T00:34:45.962Z,100480.45
2018-06-04T00:37:14.781Z,100481.09
2018-06-04T00:39:43.583Z,100481.53
2018-06-04T00:42:12.382Z,100479.41
2018-06-04T00:44:41.154Z,100472.36
2018-06-04T00:47:09.963Z,100468.92
2018-06-04T00:49:38.729Z,100475.80
2018-06-04T00:52:07.550Z,100483.48
2018-06-04T00:54:36.334Z,100419.44
2018-06-04T00:57:05.510Z,100474.35
2018-06-04T00:59:34.323Z,100477.10
2018-06-04T01:02:03.141Z,100469.74
2018-06-04T01:04:31.934Z,100463.53
2018-06-04T01:07:00.755Z,100467.55
2018-06-04T01:09:29.518Z,100469.83
2018-06-04T01:11:58.294Z,100483.84
2018-06-04T01:14:27.102Z,100414.61
2018-06-04T01:16:55.929Z,100472.81
2018-06-04T01:19:24.737Z,100465.61
2018-06-04T01:21:53.499Z,100445.23
2018-06-04T01:24:22.263Z,100448.70
2018-06-04T01:26:51.060Z,100443.73
2018-06-04T01:29:19.833Z,100443.64
2018-06-04T01:31:48.611Z,100441.36
2018-06-04T01:34:17.402Z,100438.95
2018-06-04T01:36:46.182Z,100459.42
2018-06-04T01:39:14.939Z,100457.09
2018-06-04T01:41:43.711Z,100461.09
2018-06-04T01:44:12.482Z,100469.53
2018-06-04T01:46:41.246Z,100464.29
2018-06-04T01:49:10.018Z,100463.48
2018-06-04T01:51:38.850Z,100446.30
2018-06-04T01:54:07.608Z,100456.55
2018-06-04T01:56:36.435Z,100460.33
2018-06-04T01:59:05.222Z,100467.95
2018-06-04T02:01:33.997Z,100458.19
2018-06-04T02:04:02.798Z,100490.95
2018-06-04T02:06:31.625Z,100477.08
2018-06-04T02:09:00.410Z,100473.62
2018-06-04T02:11:29.150Z,100454.91
2018-06-04T02:13:57.930Z,100432.27
2018-06-04T02:16:26.715Z,100453.75
2018-06-04T02:18:55.496Z,100435.73
2018-06-04T02:21:24.297Z,100462.98
2018-06-04T02:23:53.081Z,100465.64
2018-06-04T02:26:21.855Z,100455.20
2018-06-04T02:28:50.678Z,100462.98
2018-06-04T02:31:19.474Z,100468.72
2018-06-04T02:33:48.254Z,100484.70
2018-06-04T02:36:17.003Z,100483.41
2018-06-04T02:38:45.782Z,100476.63
2018-06-04T02:41:14.572Z,100479.42
2018-06-04T02:43:43.386Z,100477.68
2018-06-04T02:46:12.182Z,100461.27
2018-06-04T02:48:40.934Z,100464.17
2018-06-04T02:51:09.732Z,100470.59
2018-06-04T02:53:38.566Z,100467.11
2018-06-04T02:56:07.330Z,100490.70
2018-06-04T02:58:37.323Z,100489.30
2018-06-04T03:01:06.384Z,100474.59
2018-06-04T03:03:37.926Z,100488.23
2018-06-04T03:06:06.750Z,100504.39
2018-06-04T03:08:35.565Z,100518.30
2018-06-04T03:11:04.355Z,100516.52
2018-06-04T03:13:33.147Z,100520.67
2018-06-04T03:16:01.983Z,100513.42
2018-06-04T03:18:30.779Z,100508.72
2018-06-04T03:20:59.618Z,100509.52
2018-06-04T03:23:28.423Z,100513.55
2018-06-04T03:25:57.190Z,100514.30
2018-06-04T03:28:25.962Z,100535.33
2018-06-04T03:30:54.771Z,100520.41
2018-06-04T03:33:23.575Z,100537.16
2018-06-04T03:35:52.380Z,100520.72
2018-06-04T03:38:21.231Z,100516.06
2018-06-04T03:40:50.002Z,100534.72
2018-06-04T03:43:18.780Z,100522.66
2018-06-04T03:45:47.563Z,100531.09
2018-06-04T03:48:16.359Z,100543.55
2018-06-04T03:50:45.117Z,100541.25
2018-06-04T03:53:14.216Z,100540.28
2018-06-04T03:55:42.966Z,100535.99
2018-06-04T03:58:11.765Z,100548.33
2018-06-04T04:00:40.554Z,100543.09
2018-06-04T04:03:09.390Z,100542.06
2018-06-04T04:05:38.164Z,100566.22
2018-06-04T04:08:06.976Z,100554.95
2018-06-04T04:10:35.826Z,100552.17
2018-06-04T04:13:04.631Z,100553.89
2018-06-04T04:15:33.477Z,100533.31
2018-06-04T04:18:02.280Z,100548.40
2018-06-04T04:20:31.086Z,100550.67
2018-06-04T04:22:59.962Z,100555.61
2018-06-04T04:25:28.842Z,100566.50
2018-06-04T04:27:57.826Z,100563.13
2018-06-04T04:30:26.609Z,100573.67
2018-06-04T04:32:55.416Z,100573.28
2018-06-04T04:35:24.250Z,100570.22
2018-06-04T04:37:53.043Z,100574.30
2018-06-04T04:40:21.839Z,100590.32
2018-06-04T04:42:50.652Z,100582.84
2018-06-04T04:45:19.505Z,100572.83
2018-06-04T04:47:48.324Z,100573.47
2018-06-04T04:50:17.242Z,100557.20
2018-06-04T04:52:48.234Z,100576.45
2018-06-04T04:55:17.994Z,100582.86
2018-06-04T04:57:46.763Z,100576.14
2018-06-04T05:00:15.964Z,100569.59
2018-06-04T05:02:44.762Z,100565.89
2018-06-04T05:05:13.563Z,100573.95
2018-06-04T05:07:42.462Z,100576.98
2018-06-04T05:10:11.494Z,100566.94
2018-06-04T05:12:40.262Z,100573.46
2018-06-04T05:15:09.230Z,100585.50
2018-06-04T05:17:38.051Z,100577.66
2018-06-04T05:20:07.414Z,100574.98
2018-06-04T05:22:36.502Z,100591.58
2018-06-04T05:25:05.338Z,100603.41
2018-06-04T05:27:35.227Z,100596.85
2018-06-04T05:30:04.110Z,100580.44
2018-06-04T05:32:32.934Z,100581.45
2018-06-04T05:35:01.744Z,100596.87
2018-06-04T05:37:30.535Z,100593.78
2018-06-04T05:39:59.343Z,100603.32
2018-06-04T05:42:28.139Z,100619.38
2018-06-04T05:44:56.954Z,100614.48
2018-06-04T05:47:25.770Z,100646.84
2018-06-04T05:49:54.675Z,100607.55
2018-06-04T05:52:23.516Z,100627.02
2018-06-04T05:54:52.298Z,100617.86
2018-06-04T05:57:21.086Z,100639.19
2018-06-04T05:59:49.972Z,100621.64
2018-06-04T06:02:18.760Z,100635.50
2018-06-04T06:04:47.536Z,100639.30
2018-06-04T06:07:16.339Z,100633.03
2018-06-04T06:09:45.171Z,100631.88
2018-06-04T06:12:13.982Z,100632.56
2018-06-04T06:14:42.835Z,100617.41
2018-06-04T06:17:11.694Z,100636.69
2018-06-04T06:19:40.554Z,100635.47
2018-06-04T06:22:09.404Z,100576.69
2018-06-04T06:24:38.306Z,100648.77
2018-06-04T06:27:07.232Z,100640.56
2018-06-04T06:29:36.830Z,100639.86
2018-06-04T06:32:05.625Z,100644.76
2018-06-04T06:34:34.409Z,100639.95
2018-06-04T06:37:03.247Z,100638.13
2018-06-04T06:39:34.959Z,100652.54
2018-06-04T06:42:03.752Z,100653.91
2018-06-04T06:44:32.539Z,100659.71
2018-06-04T06:47:01.353Z,100649.16
2018-06-04T06:49:36.310Z,100643.48
2018-06-04T06:52:05.071Z,100635.62
2018-06-04T06:54:33.890Z,100661.98
2018-06-04T06:57:03.343Z,100660.55
2018-06-04T06:59:35.078Z,100652.60
2018-06-04T07:02:03.959Z,100640.25
2018-06-04T07:04:32.836Z,100656.92
2018-06-04T07:07:01.618Z,100655.25
2018-06-04T07:09:30.449Z,100651.48
2018-06-04T07:12:00.174Z,100646.17
2018-06-04T07:14:28.953Z,100651.23
2018-06-04T07:16:57.754Z,100652.95
2018-06-04T07:19:26.549Z,100638.20
2018-06-04T07:21:55.326Z,100647.39
2018-06-04T07:24:24.184Z,100636.95
2018-06-04T07:26:53.064Z,100637.59
2018-06-04T07:29:21.918Z,100647.87
2018-06-04T07:31:50.718Z,100624.63
2018-06-04T07:34:19.574Z,100642.41
2018-06-04T07:36:48.398Z,100625.70
2018-06-04T07:39:17.162Z,100637.48
2018-06-04T07:41:45.938Z,100629.34
2018-06-04T07:44:14.729Z,100660.05
2018-06-04T07:46:43.550Z,100645.09
2018-06-04T07:49:12.412Z,100636.67
2018-06-04T07:51:41.238Z,100647.16
2018-06-04T07:54:10.037Z,100641.13
2018-06-04T07:56:38.882Z,100641.86
2018-06-04T07:59:07.678Z,100655.00
2018-06-04T08:01:36.461Z,100650.54
2018-06-04T08:04:05.489Z,100647.05
2018-06-04T08:06:34.388Z,100648.88
2018-06-04T08:09:03.216Z,100657.06
2018-06-04T08:11:32.031Z,100639.31
2018-06-04T08:14:00.818Z,100637.16
2018-06-04T08:16:29.606Z,100632.30
2018-06-04T08:18:58.451Z,100639.17
2018-06-04T08:21:27.282Z,100618.98
2018-06-04T08:23:56.126Z,100627.07
2018-06-04T08:26:24.898Z,100637.02
2018-06-04T08:28:53.666Z,100613.09
2018-06-04T08:31:22.426Z,100635.98
2018-06-04T08:33:51.206Z,100641.53
2018-06-04T08:36:19.982Z,100640.16
2018-06-04T08:38:48.788Z,100627.79
2018-06-04T08:41:17.567Z,100627.86
2018-06-04T08:43:46.338Z,100625.95
2018-06-04T08:46:15.110Z,100615.47
2018-06-04T08:48:43.890Z,100622.87
2018-06-04T08:51:12.662Z,100635.66
2018-06-04T08:53:41.436Z,100618.38
2018-06-04T08:56:10.194Z,100606.52
2018-06-04T08:58:38.972Z,100604.53
2018-06-04T09:01:07.850Z,100616.08
2018-06-04T09:03:36.651Z,100612.27
2018-06-04T09:06:05.482Z,100618.89
2018-06-04T09:08:34.250Z,100616.66
2018-06-04T09:11:03.084Z,100614.03
2018-06-04T09:13:31.891Z,100631.25
2018-06-04T09:16:00.676Z,100617.11
2018-06-04T09:18:29.462Z,100614.23
2018-06-04T09:20:58.226Z,100602.48
2018-06-04T09:23:27.036Z,100624.37
2018-06-04T09:25:55.825Z,100597.76
2018-06-04T09:28:24.618Z,100639.70
2018-06-04T09:30:53.419Z,100645.53
2018-06-04T09:33:22.288Z,100632.81
2018-06-04T09:35:51.091Z,100632.08
2018-06-04T09:38:19.902Z,100641.33
2018-06-04T09:40:48.718Z,100635.97
2018-06-04T09:43:17.541Z,100626.53
2018-06-04T09:45:46.357Z,100646.45
2018-06-04T09:48:15.150Z,100614.43
2018-06-04T09:50:43.918Z,100610.23
2018-06-04T09:53:12.700Z,100615.41
2018-06-04T09:55:41.583Z,100603.89
2018-06-04T09:58:10.375Z,100601.90
2018-06-04T10:00:39.461Z,100593.17
2018-06-04T10:03:08.252Z,100601.16
2018-06-04T10:05:37.047Z,100604.89
2018-06-04T10:08:05.840Z,100604.80
2018-06-04T10:10:34.637Z,100609.23
2018-06-04T10:13:03.418Z,100581.15
2018-06-04T10:15:32.228Z,100614.20
2018-06-04T10:18:01.011Z,100606.51
2018-06-04T10:20:29.814Z,100617.32
2018-06-04T10:22:58.607Z,100608.38
2018-06-04T10:25:27.399Z,100615.22
2018-06-04T10:27:56.207Z,100612.66
2018-06-04T10:30:25.159Z,100617.43
2018-06-04T10:32:53.997Z,100621.76
2018-06-04T10:35:22.814Z,100607.67
2018-06-04T10:37:51.605Z,100616.44
2018-06-04T10:40:20.410Z,100603.20
2018-06-04T10:42:49.214Z,100599.21
2018-06-04T10:45:18.034Z,100617.13
2018-06-04T10:47:46.854Z,100594.59
2018-06-04T10:50:15.661Z,100611.63
2018-06-04T10:52:44.809Z,100607.64
2018-06-04T10:55:13.593Z,100630.63
2018-06-04T10:57:42.393Z,100659.94
2018-06-04T11:00:11.178Z,100650.91
2018-06-04T11:02:39.968Z,100654.43
2018-06-04T11:07:43.908Z,100621.83
2018-06-04T11:10:12.698Z,100610.61
2018-06-04T11:12:41.532Z,100622.56
2018-06-04T11:15:10.432Z,100613.52
2018-06-04T11:17:39.262Z,100607.45
2018-06-04T11:20:08.109Z,100609.16
2018-06-04T11:22:37.626Z,100614.96
2018-06-04T11:25:06.442Z,100610.05
2018-06-04T11:27:35.229Z,100625.38
2018-06-04T11:30:04.102Z,100613.56
2018-06-04T11:32:32.918Z,100606.61
2018-06-04T11:35:01.722Z,100604.46
2018-06-04T11:37:30.537Z,100599.59
2018-06-04T11:39:59.334Z,100590.95
2018-06-04T11:42:28.146Z,100583.59
2018-06-04T11:44:56.993Z,100577.02
2018-06-04T11:47:25.814Z,100622.28
2018-06-04T11:49:54.578Z,100580.66
2018-06-04T11:52:23.394Z,100606.57
2018-06-04T11:54:52.174Z,100577.28
2018-06-04T11:57:20.961Z,100580.70
2018-06-04T11:59:49.743Z,100620.80
2018-06-04T12:02:18.547Z,100623.27
2018-06-04T12:04:47.413Z,100606.58
2018-06-04T12:07:16.190Z,100637.59
2018-06-04T12:09:44.967Z,100613.89
2018-06-04T12:14:41.513Z,100616.30
2018-06-04T12:17:10.273Z,100634.28
2018-06-04T12:19:39.027Z,100601.91
2018-06-04T12:22:07.944Z,100598.31
2018-06-04T12:24:36.751Z,100597.96
2018-06-04T12:27:05.522Z,100606.13
2018-06-04T12:29:34.343Z,100606.56
2018-06-04T12:32:03.363Z,100607.84
2018-06-04T12:34:32.166Z,100578.35
2018-06-04T12:37:00.926Z,100578.94
2018-06-04T12:39:29.737Z,100592.78
2018-06-04T12:41:58.571Z,100592.79
2018-06-04T12:44:27.385Z,100599.58
2018-06-04T12:46:57.101Z,100630.84
2018-06-04T12:49:25.914Z,100602.63
2018-06-04T12:51:54.734Z,100610.23
2018-06-04T12:54:23.663Z,100603.83
2018-06-04T12:56:52.489Z,100577.81
2018-06-04T12:59:21.318Z,100583.67
2018-06-04T13:01:50.171Z,100591.66
2018-06-04T13:04:19.006Z,100589.17
2018-06-04T13:06:47.842Z,100588.97
2018-06-04T13:09:16.653Z,100588.19
2018-06-04T13:11:45.461Z,100558.29
2018-06-04T13:14:14.221Z,100616.48
2018-06-04T13:16:43.041Z,100589.80
2018-06-04T13:19:11.886Z,100600.39
2018-06-04T13:21:40.713Z,100609.91
2018-06-04T13:24:09.502Z,100595.12
2018-06-04T13:26:38.326Z,100608.26
2018-06-04T13:29:07.189Z,100591.75
2018-06-04T13:31:35.992Z,100591.88
2018-06-04T13:34:04.840Z,100560.69
2018-06-04T13:36:33.692Z,100610.53
2018-06-04T13:39:02.474Z,100592.42
2018-06-04T13:41:31.296Z,100583.27
2018-06-04T13:44:00.126Z,100575.83
2018-06-04T13:46:28.984Z,100418.12
2018-06-04T13:48:57.809Z,100573.75
2018-06-04T13:51:26.713Z,100573.47
2018-06-04T13:53:55.567Z,100586.17
2018-06-04T13:56:24.441Z,100592.45
2018-06-04T13:58:53.339Z,100607.73
2018-06-04T14:01:22.165Z,100620.06
2018-06-04T14:03:51.006Z,100618.02
2018-06-04T14:06:19.910Z,100589.31
2018-06-04T14:08:48.758Z,100610.36
2018-06-04T14:11:17.771Z,100629.02
2018-06-04T14:13:46.612Z,100610.44
2018-06-04T14:16:15.458Z,100599.53
2018-06-04T14:18:44.320Z,100609.88
2018-06-04T14:21:13.105Z,100616.04
2018-06-04T14:23:41.926Z,100622.58
2018-06-04T14:26:10.732Z,100629.16
2018-06-04T14:28:39.561Z,100630.81
2018-06-04T14:31:08.397Z,100614.30
2018-06-04T14:33:37.241Z,100619.91
2018-06-04T14:36:06.191Z,100631.44
2018-06-04T14:38:34.992Z,100641.72
2018-06-04T14:41:03.850Z,100629.80
2018-06-04T14:43:32.728Z,100653.96
2018-06-04T14:46:01.550Z,100615.38
2018-06-04T14:48:30.388Z,100615.98
2018-06-04T14:50:59.468Z,100623.79
2018-06-04T14:53:28.293Z,100637.73
2018-06-04T14:55:57.074Z,100630.80
2018-06-04T14:58:25.893Z,100642.42
2018-06-04T15:00:54.738Z,100662.74
2018-06-04T15:03:23.549Z,100657.76
2018-06-04T15:05:52.337Z,100645.73
2018-06-04T15:08:21.184Z,100645.31
2018-06-04T15:10:50.011Z,100656.16
2018-06-04T15:13:18.822Z,100635.73
2018-06-04T15:15:47.625Z,100650.02
2018-06-04T15:18:16.401Z,100640.70
2018-06-04T15:20:45.150Z,100658.55
2018-06-04T15:23:13.936Z,100653.41
2018-06-04T15:25:42.793Z,100661.38
2018-06-04T15:28:11.595Z,100660.25
2018-06-04T15:30:40.422Z,100663.17
2018-06-04T15:33:09.277Z,100695.44
2018-06-04T15:35:38.074Z,100678.16
2018-06-04T15:38:06.946Z,100665.11
2018-06-04T15:40:35.735Z,100674.38
2018-06-04T15:43:04.539Z,100677.08
2018-06-04T15:45:33.335Z,100687.81
2018-06-04T15:48:02.278Z,100706.54
2018-06-04T15:50:31.055Z,100683.69
2018-06-04T15:52:59.834Z,100698.63
2018-06-04T15:55:28.682Z,100685.27
2018-06-04T15:57:57.485Z,100702.34
2018-06-04T16:00:26.273Z,100707.64
2018-06-04T16:02:55.116Z,100705.95
2018-06-04T16:05:23.943Z,100710.44
2018-06-04T16:07:52.713Z,100712.63
2018-06-04T16:10:21.534Z,100712.02
2018-06-04T16:12:50.333Z,100720.58
2018-06-04T16:15:19.114Z,100721.66
2018-06-04T16:17:47.933Z,100715.41
2018-06-04T16:20:16.809Z,100722.41
2018-06-04T16:22:46.261Z,100722.64
2018-06-04T16:25:15.038Z,100738.31
2018-06-04T16:27:43.826Z,100724.31
2018-06-04T16:30:12.660Z,100726.39
2018-06-04T16:32:41.955Z,100719.25
2018-06-04T16:35:11.415Z,100731.92
2018-06-04T16:37:41.733Z,100726.00
2018-06-04T16:40:12.234Z,100731.30
2018-06-04T16:42:41.220Z,100720.95
2018-06-04T16:45:11.070Z,100738.47
2018-06-04T16:47:40.642Z,100732.44
2018-06-04T16:50:10.075Z,100729.98
2018-06-04T16:52:39.116Z,100737.72
2018-06-04T16:55:08.059Z,100754.16
2018-06-04T16:57:36.902Z,100753.62
2018-06-04T17:00:06.032Z,100760.25
2018-06-04T17:02:34.918Z,100754.47
2018-06-04T17:05:03.702Z,100755.72
2018-06-04T17:07:32.566Z,100739.28
2018-06-04T17:10:02.278Z,100754.75
2018-06-04T17:12:31.826Z,100763.91
2018-06-04T17:15:01.836Z,100755.21
2018-06-04T17:17:32.431Z,100761.61
2018-06-04T17:20:01.718Z,100751.59
2018-06-04T17:22:31.121Z,100770.55
2018-06-04T17:25:00.704Z,100771.26
2018-06-04T17:27:29.926Z,100770.22
2018-06-04T17:29:59.952Z,100767.77
2018-06-04T17:32:28.863Z,100791.56
2018-06-04T17:34:57.798Z,100815.27
2018-06-04T17:37:26.942Z,100783.36
2018-06-04T17:39:55.794Z,100779.84
2018-06-04T17:42:24.612Z,100786.81
2018-06-04T17:44:54.713Z,100779.81
2018-06-04T17:47:23.689Z,100789.53
2018-06-04T17:49:53.125Z,100814.84
2018-06-04T17:52:23.146Z,100797.81
2018-06-04T17:54:52.686Z,100797.58
2018-06-04T17:57:21.882Z,100807.95
2018-06-04T17:59:50.836Z,100802.94
2018-06-04T18:02:20.206Z,100812.26
2018-06-04T18:04:49.199Z,100818.58
2018-06-04T18:07:17.983Z,100820.66
2018-06-04T18:09:47.170Z,100819.70
2018-06-04T18:12:16.862Z,100818.97
2018-06-04T18:14:46.289Z,100809.66
2018-06-04T18:17:15.717Z,100827.35
2018-06-04T18:19:45.998Z,100815.44
2018-06-04T18:22:15.423Z,100842.06
2018-06-04T18:24:45.745Z,100844.91
2018-06-04T18:27:15.071Z,100829.33
2018-06-04T18:29:44.370Z,100848.09
2018-06-04T18:32:13.519Z,100847.48
2018-06-04T18:34:43.056Z,100849.80
2018-06-04T18:37:12.043Z,100839.47
2018-06-04T18:39:42.300Z,100862.30
2018-06-04T18:42:11.144Z,100864.39
2018-06-04T18:44:41.160Z,100864.55
2018-06-04T18:47:10.732Z,100855.25
2018-06-04T18:49:41.205Z,100863.81
2018-06-04T18:52:10.334Z,100872.16
2018-06-04T18:54:39.668Z,100859.28
2018-06-04T18:57:08.523Z,100875.45
2018-06-04T18:59:37.332Z,100883.70
2018-06-04T19:02:06.213Z,100879.04
2018-06-04T19:04:39.363Z,100850.86
2018-06-04T19:07:08.146Z,100884.02
2018-06-04T19:09:36.960Z,100883.45
2018-06-04T19:12:05.754Z,100887.36
2018-06-04T19:14:34.581Z,100882.75
2018-06-04T19:17:03.389Z,100890.91
2018-06-04T19:19:32.180Z,100902.09
2018-06-04T19:22:00.990Z,100902.65
2018-06-04T19:24:29.797Z,100905.63
2018-06-04T19:26:58.633Z,100908.22
2018-06-04T19:29:27.464Z,100920.98
2018-06-04T19:31:56.301Z,100924.09
2018-06-04T19:34:25.024Z,100926.98
2018-06-04T19:36:53.981Z,100930.66
2018-06-04T19:39:22.797Z,100936.28
2018-06-04T19:41:51.622Z,100938.56
2018-06-04T19:44:20.410Z,100936.73
2018-06-04T19:46:49.194Z,100941.25
2018-06-04T19:49:18.054Z,100956.93
2018-06-04T19:51:46.877Z,100962.55
2018-06-04T19:54:15.736Z,100953.16
2018-06-04T19:56:44.567Z,100948.20
2018-06-04T19:59:13.386Z,100953.02
2018-06-04T20:01:42.407Z,100958.52
2018-06-04T20:04:11.203Z,100955.84
2018-06-04T20:06:40.002Z,100958.39
2018-06-04T20:09:09.497Z,100959.87
2018-06-04T20:11:38.432Z,100968.77
2018-06-04T20:14:07.272Z,100963.49
2018-06-04T20:16:36.054Z,100965.39
2018-06-04T20:19:04.866Z,100965.78
2018-06-04T20:21:33.677Z,100977.13
2018-06-04T20:24:02.489Z,100964.27
2018-06-04T20:26:31.329Z,100967.88
2018-06-04T20:29:00.123Z,100968.25
2018-06-04T20:31:28.941Z,100961.64
2018-06-04T20:33:57.744Z,100972.14
2018-06-04T20:36:32.065Z,100966.09
2018-06-04T20:39:00.851Z,100977.43
2018-06-04T20:41:29.649Z,100984.12
2018-06-04T20:43:58.482Z,100974.39
2018-06-04T20:46:27.254Z,100983.38
2018-06-04T20:48:56.043Z,100995.27
2018-06-04T20:51:24.830Z,100997.03
2018-06-04T20:53:53.618Z,100992.58
2018-06-04T20:56:22.457Z,101002.99
2018-06-04T20:58:51.310Z,101002.38
2018-06-04T21:01:20.167Z,101001.55
2018-06-04T21:03:48.970Z,101003.06
2018-06-04T21:06:17.795Z,100997.59
2018-06-04T21:08:46.595Z,101005.03
2018-06-04T21:11:15.809Z,101002.48
2018-06-04T21:13:44.651Z,101008.14
2018-06-04T21:16:13.486Z,101008.34
2018-06-04T21:18:42.314Z,101014.75
2018-06-04T21:21:11.150Z,101020.25
2018-06-04T21:23:39.952Z,101009.47
2018-06-04T21:26:08.743Z,101022.67
2018-06-04T21:28:37.533Z,101034.39
2018-06-04T21:31:06.345Z,101022.31
2018-06-04T21:33:35.148Z,101018.89
2018-06-04T21:36:03.930Z,101030.09
2018-06-04T21:38:32.710Z,101038.80
2018-06-04T21:41:01.502Z,101028.77
2018-06-04T21:43:30.297Z,101034.97
2018-06-04T21:45:59.095Z,101015.50
2018-06-04T21:48:27.923Z,101030.67
2018-06-04T21:50:56.745Z,101043.63
2018-06-04T21:53:25.561Z,101034.95
2018-06-04T21:55:54.750Z,101043.36
2018-06-04T21:58:23.545Z,101053.47
2018-06-04T22:00:52.358Z,101056.27
2018-06-04T22:03:21.166Z,101050.50
2018-06-04T22:05:50.026Z,101052.48
2018-06-04T22:08:18.829Z,101053.42
2018-06-04T22:10:47.641Z,101050.87
2018-06-04T22:13:16.453Z,101050.27
2018-06-04T22:15:45.239Z,101054.51
2018-06-04T22:18:14.019Z,101051.75
2018-06-04T22:20:42.815Z,101056.48
2018-06-04T22:23:11.607Z,101057.50
2018-06-04T22:25:40.353Z,101059.53
2018-06-04T22:28:09.161Z,101057.25
2018-06-04T22:30:37.991Z,101063.80
2018-06-04T22:33:06.810Z,101068.04
2018-06-04T22:35:35.691Z,101071.89
2018-06-04T22:38:04.478Z,101067.55
2018-06-04T22:40:33.294Z,101076.77
2018-06-04T22:43:02.071Z,101070.51
2018-06-04T22:45:30.854Z,101083.35
2018-06-04T22:47:59.637Z,101080.28
2018-06-04T22:52:52.090Z,101072.54
2018-06-04T22:55:20.908Z,101079.77
2018-06-04T22:57:49.704Z,101092.69
2018-06-04T23:00:41.158Z,101086.19
2018-06-04T23:03:09.961Z,101077.89
2018-06-04T23:05:38.756Z,101095.16
2018-06-04T23:08:07.550Z,101087.50
2018-06-04T23:10:36.780Z,101092.97
2018-06-04T23:13:05.611Z,101087.59
2018-06-04T23:15:34.418Z,101095.81
2018-06-04T23:18:03.246Z,101110.77
2018-06-04T23:20:32.033Z,101102.71
2018-06-04T23:23:00.899Z,101110.91
2018-06-04T23:25:29.689Z,101111.69
2018-06-04T23:27:58.497Z,101111.53
2018-06-04T23:30:27.261Z,101125.84
2018-06-04T23:32:56.067Z,101122.45
2018-06-04T23:35:24.853Z,101132.88
2018-06-04T23:37:53.745Z,101125.31
2018-06-04T23:40:22.557Z,101145.70
2018-06-04T23:42:51.370Z,101137.21
2018-06-04T23:45:20.174Z,101138.20
2018-06-04T23:47:48.960Z,101141.52
2018-06-04T23:50:17.794Z,101140.05
2018-06-04T23:52:46.593Z,101130.08
2018-06-04T23:55:15.409Z,101146.34
2018-06-04T23:57:44.195Z,101137.83
